sensor_id;sensor_type;location;lat;lon;timestamp;temperature;humidity
45283;DHT22;31023;44.994;1.796;2023-06-19T00:02:15;17.90;99.90
45283;DHT22;31023;44.994;1.796;2023-06-19T00:04:40;18.10;99.90
45283;DHT22;31023;44.994;1.796;2023-06-19T00:07:06;18.10;99.90
45283;DHT22;31023;44.994;1.796;2023-06-19T00:09:32;18.10;99.90
45283;DHT22;31023;44.994;1.796;2023-06-19T00:11:58;18.20;99.90
45283;DHT22;31023;44.994;1.796;2023-06-19T00:14:25;18.10;99.90
45283;DHT22;31023;44.994;1.796;2023-06-19T00:16:50;18.30;99.90
45283;DHT22;31023;44.994;1.796;2023-06-19T00:19:16;18.20;99.90
45283;DHT22;31023;44.994;1.796;2023-06-19T00:21:42;18.30;99.90
45283;DHT22;31023;44.994;1.796;2023-06-19T00:24:08;18.20;99.90
45283;DHT22;31023;44.994;1.796;2023-06-19T00:26:34;18.30;99.90
45283;DHT22;31023;44.994;1.796;2023-06-19T00:28:59;18.60;99.90
45283;DHT22;31023;44.994;1.796;2023-06-19T00:31:25;18.60;99.90
45283;DHT22;31023;44.994;1.796;2023-06-19T00:33:52;18.20;99.90
45283;DHT22;31023;44.994;1.796;2023-06-19T00:36:18;18.30;99.90
45283;DHT22;31023;44.994;1.796;2023-06-19T00:38:48;18.50;99.90
45283;DHT22;31023;44.994;1.796;2023-06-19T00:41:17;18.40;99.90
45283;DHT22;31023;44.994;1.796;2023-06-19T00:43:43;18.40;99.90
45283;DHT22;31023;44.994;1.796;2023-06-19T00:46:08;18.70;99.90
45283;DHT22;31023;44.994;1.796;2023-06-19T00:48:34;18.70;99.90
45283;DHT22;31023;44.994;1.796;2023-06-19T00:50:59;18.20;99.90
45283;DHT22;31023;44.994;1.796;2023-06-19T00:53:25;18.50;99.90
45283;DHT22;31023;44.994;1.796;2023-06-19T00:55:51;18.10;99.90
45283;DHT22;31023;44.994;1.796;2023-06-19T00:58:19;18.10;99.90
45283;DHT22;31023;44.994;1.796;2023-06-19T01:00:44;18.30;99.90
45283;DHT22;31023;44.994;1.796;2023-06-19T01:03:10;18.30;99.90
45283;DHT22;31023;44.994;1.796;2023-06-19T01:05:35;18.40;99.90
45283;DHT22;31023;44.994;1.796;2023-06-19T01:15:54;18.60;99.90
45283;DHT22;31023;44.994;1.796;2023-06-19T01:18:19;18.70;99.90
45283;DHT22;31023;44.994;1.796;2023-06-19T01:20:45;18.60;99.90
45283;DHT22;31023;44.994;1.796;2023-06-19T01:23:11;18.80;99.90
45283;DHT22;31023;44.994;1.796;2023-06-19T01:25:37;18.60;99.90
45283;DHT22;31023;44.994;1.796;2023-06-19T01:28:03;18.30;99.90
45283;DHT22;31023;44.994;1.796;2023-06-19T01:30:31;18.70;99.90
45283;DHT22;31023;44.994;1.796;2023-06-19T01:32:58;18.50;99.90
45283;DHT22;31023;44.994;1.796;2023-06-19T01:35:27;18.50;99.90
45283;DHT22;31023;44.994;1.796;2023-06-19T01:37:53;18.30;99.90
45283;DHT22;31023;44.994;1.796;2023-06-19T01:40:19;18.10;99.90
45283;DHT22;31023;44.994;1.796;2023-06-19T01:42:49;18.20;99.90
45283;DHT22;31023;44.994;1.796;2023-06-19T01:45:16;18.10;99.90
45283;DHT22;31023;44.994;1.796;2023-06-19T01:47:41;18.00;99.90
45283;DHT22;31023;44.994;1.796;2023-06-19T01:50:07;17.90;99.90
45283;DHT22;31023;44.994;1.796;2023-06-19T01:52:33;17.90;99.90
45283;DHT22;31023;44.994;1.796;2023-06-19T01:54:59;17.80;99.90
45283;DHT22;31023;44.994;1.796;2023-06-19T01:57:24;18.00;99.90
45283;DHT22;31023;44.994;1.796;2023-06-19T01:59:51;17.90;99.90
45283;DHT22;31023;44.994;1.796;2023-06-19T02:02:16;17.70;99.90
45283;DHT22;31023;44.994;1.796;2023-06-19T02:04:42;17.70;99.90
45283;DHT22;31023;44.994;1.796;2023-06-19T02:07:07;17.70;99.90
45283;DHT22;31023;44.994;1.796;2023-06-19T02:09:33;17.60;99.90
45283;DHT22;31023;44.994;1.796;2023-06-19T02:11:58;17.60;99.90
45283;DHT22;31023;44.994;1.796;2023-06-19T02:14:24;17.60;99.90
45283;DHT22;31023;44.994;1.796;2023-06-19T02:16:49;17.60;99.90
45283;DHT22;31023;44.994;1.796;2023-06-19T02:19:15;17.70;99.90
45283;DHT22;31023;44.994;1.796;2023-06-19T02:21:41;17.60;99.90
45283;DHT22;31023;44.994;1.796;2023-06-19T02:24:06;17.40;99.90
45283;DHT22;31023;44.994;1.796;2023-06-19T02:26:32;17.40;99.90
45283;DHT22;31023;44.994;1.796;2023-06-19T02:28:57;17.40;99.90
45283;DHT22;31023;44.994;1.796;2023-06-19T02:31:23;17.50;99.90
45283;DHT22;31023;44.994;1.796;2023-06-19T02:33:49;17.50;99.90
45283;DHT22;31023;44.994;1.796;2023-06-19T02:36:14;17.50;99.90
45283;DHT22;31023;44.994;1.796;2023-06-19T02:38:47;17.50;99.90
45283;DHT22;31023;44.994;1.796;2023-06-19T02:41:13;17.40;99.90
45283;DHT22;31023;44.994;1.796;2023-06-19T02:43:41;17.40;99.90
45283;DHT22;31023;44.994;1.796;2023-06-19T02:46:07;17.40;99.90
45283;DHT22;31023;44.994;1.796;2023-06-19T02:48:33;17.40;99.90
45283;DHT22;31023;44.994;1.796;2023-06-19T02:50:59;17.50;99.90
45283;DHT22;31023;44.994;1.796;2023-06-19T02:53:24;17.50;99.90
45283;DHT22;31023;44.994;1.796;2023-06-19T02:55:50;17.40;99.90
45283;DHT22;31023;44.994;1.796;2023-06-19T02:58:15;17.50;99.90
45283;DHT22;31023;44.994;1.796;2023-06-19T03:00:41;17.40;99.90
45283;DHT22;31023;44.994;1.796;2023-06-19T03:03:06;17.30;99.90
45283;DHT22;31023;44.994;1.796;2023-06-19T03:05:32;17.40;99.90
45283;DHT22;31023;44.994;1.796;2023-06-19T03:07:58;17.40;99.90
45283;DHT22;31023;44.994;1.796;2023-06-19T03:10:23;17.50;99.90
45283;DHT22;31023;44.994;1.796;2023-06-19T03:12:49;17.50;99.90
45283;DHT22;31023;44.994;1.796;2023-06-19T03:15:14;17.50;99.90
45283;DHT22;31023;44.994;1.796;2023-06-19T03:17:40;17.40;99.90
45283;DHT22;31023;44.994;1.796;2023-06-19T03:20:06;17.40;99.90
45283;DHT22;31023;44.994;1.796;2023-06-19T03:22:31;17.40;99.90
45283;DHT22;31023;44.994;1.796;2023-06-19T03:24:57;17.50;99.90
45283;DHT22;31023;44.994;1.796;2023-06-19T03:27:22;17.50;99.90
45283;DHT22;31023;44.994;1.796;2023-06-19T03:29:50;17.50;99.90
45283;DHT22;31023;44.994;1.796;2023-06-19T03:32:15;17.50;99.90
45283;DHT22;31023;44.994;1.796;2023-06-19T03:34:42;17.50;99.90
45283;DHT22;31023;44.994;1.796;2023-06-19T03:37:07;17.40;99.90
45283;DHT22;31023;44.994;1.796;2023-06-19T03:39:33;17.40;99.90
45283;DHT22;31023;44.994;1.796;2023-06-19T03:41:59;17.40;99.90
45283;DHT22;31023;44.994;1.796;2023-06-19T03:44:24;17.30;99.90
45283;DHT22;31023;44.994;1.796;2023-06-19T03:46:50;17.30;99.90
45283;DHT22;31023;44.994;1.796;2023-06-19T03:49:16;17.30;99.90
45283;DHT22;31023;44.994;1.796;2023-06-19T03:51:43;17.30;99.90
45283;DHT22;31023;44.994;1.796;2023-06-19T03:54:08;17.20;99.90
45283;DHT22;31023;44.994;1.796;2023-06-19T03:56:34;17.30;99.90
45283;DHT22;31023;44.994;1.796;2023-06-19T03:58:59;17.30;99.90
45283;DHT22;31023;44.994;1.796;2023-06-19T04:01:25;17.30;99.90
45283;DHT22;31023;44.994;1.796;2023-06-19T04:03:50;17.30;99.90
45283;DHT22;31023;44.994;1.796;2023-06-19T04:06:16;17.40;99.90
45283;DHT22;31023;44.994;1.796;2023-06-19T04:08:41;17.30;99.90
45283;DHT22;31023;44.994;1.796;2023-06-19T04:11:07;17.30;99.90
45283;DHT22;31023;44.994;1.796;2023-06-19T04:13:33;17.30;99.90
45283;DHT22;31023;44.994;1.796;2023-06-19T04:15:58;17.30;99.90
45283;DHT22;31023;44.994;1.796;2023-06-19T04:18:24;17.50;99.90
45283;DHT22;31023;44.994;1.796;2023-06-19T04:20:49;17.50;99.90
45283;DHT22;31023;44.994;1.796;2023-06-19T04:23:15;17.80;99.90
45283;DHT22;31023;44.994;1.796;2023-06-19T04:25:40;18.00;99.90
45283;DHT22;31023;44.994;1.796;2023-06-19T04:28:06;17.50;99.90
45283;DHT22;31023;44.994;1.796;2023-06-19T04:30:32;17.50;99.90
45283;DHT22;31023;44.994;1.796;2023-06-19T04:32:57;17.60;99.90
45283;DHT22;31023;44.994;1.796;2023-06-19T04:35:23;18.20;99.90
45283;DHT22;31023;44.994;1.796;2023-06-19T04:37:52;18.50;99.90
45283;DHT22;31023;44.994;1.796;2023-06-19T04:40:18;18.80;99.90
45283;DHT22;31023;44.994;1.796;2023-06-19T04:42:43;18.90;99.90
45283;DHT22;31023;44.994;1.796;2023-06-19T04:45:09;18.80;99.90
45283;DHT22;31023;44.994;1.796;2023-06-19T04:47:35;18.70;99.90
45283;DHT22;31023;44.994;1.796;2023-06-19T04:50:00;19.30;99.90
45283;DHT22;31023;44.994;1.796;2023-06-19T04:52:26;19.60;99.90
45283;DHT22;31023;44.994;1.796;2023-06-19T04:54:52;19.90;99.90
45283;DHT22;31023;44.994;1.796;2023-06-19T04:57:17;20.30;99.90
45283;DHT22;31023;44.994;1.796;2023-06-19T04:59:43;20.60;99.90
45283;DHT22;31023;44.994;1.796;2023-06-19T05:02:11;20.70;99.90
45283;DHT22;31023;44.994;1.796;2023-06-19T05:04:37;20.80;99.90
45283;DHT22;31023;44.994;1.796;2023-06-19T05:07:03;20.40;99.90
45283;DHT22;31023;44.994;1.796;2023-06-19T05:09:28;19.40;99.90
45283;DHT22;31023;44.994;1.796;2023-06-19T05:11:54;19.80;99.90
45283;DHT22;31023;44.994;1.796;2023-06-19T05:14:20;20.90;99.90
45283;DHT22;31023;44.994;1.796;2023-06-19T05:16:45;21.50;99.90
45283;DHT22;31023;44.994;1.796;2023-06-19T05:19:11;21.50;99.90
45283;DHT22;31023;44.994;1.796;2023-06-19T05:21:36;21.80;99.90
45283;DHT22;31023;44.994;1.796;2023-06-19T05:24:02;22.30;99.90
45283;DHT22;31023;44.994;1.796;2023-06-19T05:26:27;23.30;99.90
45283;DHT22;31023;44.994;1.796;2023-06-19T05:28:53;24.30;99.90
45283;DHT22;31023;44.994;1.796;2023-06-19T05:31:19;25.30;92.80
45283;DHT22;31023;44.994;1.796;2023-06-19T05:33:44;25.70;94.60
45283;DHT22;31023;44.994;1.796;2023-06-19T05:36:10;26.20;92.50
45283;DHT22;31023;44.994;1.796;2023-06-19T05:38:36;26.70;91.80
45283;DHT22;31023;44.994;1.796;2023-06-19T05:41:02;27.10;90.80
45283;DHT22;31023;44.994;1.796;2023-06-19T05:43:27;26.80;88.70
45283;DHT22;31023;44.994;1.796;2023-06-19T05:45:53;26.70;87.70
45283;DHT22;31023;44.994;1.796;2023-06-19T05:48:19;27.00;84.10
45283;DHT22;31023;44.994;1.796;2023-06-19T05:50:45;26.70;81.80
45283;DHT22;31023;44.994;1.796;2023-06-19T05:53:10;28.10;77.20
45283;DHT22;31023;44.994;1.796;2023-06-19T05:55:36;28.40;75.60
45283;DHT22;31023;44.994;1.796;2023-06-19T05:58:02;28.00;75.50
45283;DHT22;31023;44.994;1.796;2023-06-19T06:00:27;28.00;73.60
45283;DHT22;31023;44.994;1.796;2023-06-19T06:02:56;27.80;75.20
45283;DHT22;31023;44.994;1.796;2023-06-19T06:05:21;27.40;76.20
45283;DHT22;31023;44.994;1.796;2023-06-19T06:07:47;26.50;77.10
45283;DHT22;31023;44.994;1.796;2023-06-19T06:10:13;26.70;76.80
45283;DHT22;31023;44.994;1.796;2023-06-19T06:12:39;27.30;73.10
45283;DHT22;31023;44.994;1.796;2023-06-19T06:15:05;27.70;70.80
45283;DHT22;31023;44.994;1.796;2023-06-19T06:17:31;26.90;74.10
45283;DHT22;31023;44.994;1.796;2023-06-19T06:19:56;26.90;71.40
45283;DHT22;31023;44.994;1.796;2023-06-19T06:22:22;26.50;72.90
45283;DHT22;31023;44.994;1.796;2023-06-19T06:24:47;26.60;73.80
45283;DHT22;31023;44.994;1.796;2023-06-19T06:27:13;26.40;73.90
45283;DHT22;31023;44.994;1.796;2023-06-19T06:29:39;25.80;74.30
45283;DHT22;31023;44.994;1.796;2023-06-19T06:32:05;25.10;75.70
45283;DHT22;31023;44.994;1.796;2023-06-19T06:34:33;24.90;77.10
45283;DHT22;31023;44.994;1.796;2023-06-19T06:36:59;24.90;75.90
45283;DHT22;31023;44.994;1.796;2023-06-19T06:39:25;24.90;77.00
45283;DHT22;31023;44.994;1.796;2023-06-19T06:41:51;25.60;75.50
45283;DHT22;31023;44.994;1.796;2023-06-19T06:44:17;26.90;72.80
45283;DHT22;31023;44.994;1.796;2023-06-19T06:46:42;28.00;69.70
45283;DHT22;31023;44.994;1.796;2023-06-19T06:49:08;27.70;68.40
45283;DHT22;31023;44.994;1.796;2023-06-19T06:51:33;27.10;69.90
45283;DHT22;31023;44.994;1.796;2023-06-19T06:53:59;28.90;66.80
45283;DHT22;31023;44.994;1.796;2023-06-19T06:56:24;29.30;63.40
45283;DHT22;31023;44.994;1.796;2023-06-19T06:58:50;28.90;61.50
45283;DHT22;31023;44.994;1.796;2023-06-19T07:01:16;29.20;60.50
45283;DHT22;31023;44.994;1.796;2023-06-19T07:03:41;30.30;59.20
45283;DHT22;31023;44.994;1.796;2023-06-19T07:06:07;31.00;56.40
45283;DHT22;31023;44.994;1.796;2023-06-19T07:08:33;29.50;56.80
45283;DHT22;31023;44.994;1.796;2023-06-19T07:10:58;29.70;56.30
45283;DHT22;31023;44.994;1.796;2023-06-19T07:13:24;31.60;54.30
45283;DHT22;31023;44.994;1.796;2023-06-19T07:15:50;31.60;52.00
45283;DHT22;31023;44.994;1.796;2023-06-19T07:18:15;31.10;53.60
45283;DHT22;31023;44.994;1.796;2023-06-19T07:20:41;30.30;53.40
45283;DHT22;31023;44.994;1.796;2023-06-19T07:23:07;30.60;52.60
45283;DHT22;31023;44.994;1.796;2023-06-19T07:25:32;32.70;50.20
45283;DHT22;31023;44.994;1.796;2023-06-19T07:27:59;32.50;49.30
45283;DHT22;31023;44.994;1.796;2023-06-19T07:30:25;32.60;47.50
45283;DHT22;31023;44.994;1.796;2023-06-19T07:32:51;33.00;48.70
45283;DHT22;31023;44.994;1.796;2023-06-19T07:35:16;32.90;47.10
45283;DHT22;31023;44.994;1.796;2023-06-19T07:37:42;30.80;49.60
45283;DHT22;31023;44.994;1.796;2023-06-19T07:40:08;29.00;53.80
45283;DHT22;31023;44.994;1.796;2023-06-19T07:42:34;28.70;53.30
45283;DHT22;31023;44.994;1.796;2023-06-19T07:44:59;30.00;50.70
45283;DHT22;31023;44.994;1.796;2023-06-19T07:47:26;30.60;50.40
45283;DHT22;31023;44.994;1.796;2023-06-19T07:49:52;31.20;49.90
45283;DHT22;31023;44.994;1.796;2023-06-19T07:52:17;35.20;44.20
45283;DHT22;31023;44.994;1.796;2023-06-19T07:54:53;31.50;47.80
45283;DHT22;31023;44.994;1.796;2023-06-19T07:57:19;30.80;50.20
45283;DHT22;31023;44.994;1.796;2023-06-19T07:59:45;31.40;49.30
45283;DHT22;31023;44.994;1.796;2023-06-19T08:02:10;32.90;48.50
45283;DHT22;31023;44.994;1.796;2023-06-19T08:04:36;33.50;46.50
45283;DHT22;31023;44.994;1.796;2023-06-19T08:07:02;34.10;46.50
45283;DHT22;31023;44.994;1.796;2023-06-19T08:09:27;36.90;44.40
45283;DHT22;31023;44.994;1.796;2023-06-19T08:11:53;36.60;43.40
45283;DHT22;31023;44.994;1.796;2023-06-19T08:14:18;33.80;44.20
45283;DHT22;31023;44.994;1.796;2023-06-19T08:16:45;31.20;49.40
45283;DHT22;31023;44.994;1.796;2023-06-19T08:19:10;32.00;47.70
45283;DHT22;31023;44.994;1.796;2023-06-19T08:21:36;32.70;48.10
45283;DHT22;31023;44.994;1.796;2023-06-19T08:24:01;32.00;47.50
45283;DHT22;31023;44.994;1.796;2023-06-19T08:26:27;33.90;45.00
45283;DHT22;31023;44.994;1.796;2023-06-19T08:28:53;35.30;43.20
45283;DHT22;31023;44.994;1.796;2023-06-19T08:31:19;32.40;45.00
45283;DHT22;31023;44.994;1.796;2023-06-19T08:33:46;32.60;47.70
45283;DHT22;31023;44.994;1.796;2023-06-19T08:36:13;35.00;44.30
45283;DHT22;31023;44.994;1.796;2023-06-19T08:38:39;38.20;40.80
45283;DHT22;31023;44.994;1.796;2023-06-19T08:41:05;34.00;41.80
45283;DHT22;31023;44.994;1.796;2023-06-19T08:43:31;34.20;42.70
45283;DHT22;31023;44.994;1.796;2023-06-19T08:46:15;34.30;45.30
45283;DHT22;31023;44.994;1.796;2023-06-19T08:48:41;38.60;41.00
45283;DHT22;31023;44.994;1.796;2023-06-19T08:51:07;39.30;37.50
45283;DHT22;31023;44.994;1.796;2023-06-19T08:53:33;41.00;37.00
45283;DHT22;31023;44.994;1.796;2023-06-19T08:55:59;40.30;35.90
45283;DHT22;31023;44.994;1.796;2023-06-19T08:58:25;38.70;39.10
45283;DHT22;31023;44.994;1.796;2023-06-19T09:00:51;37.60;39.40
45283;DHT22;31023;44.994;1.796;2023-06-19T09:03:20;36.70;41.10
45283;DHT22;31023;44.994;1.796;2023-06-19T09:05:49;35.20;39.60
45283;DHT22;31023;44.994;1.796;2023-06-19T09:08:16;35.00;41.70
45283;DHT22;31023;44.994;1.796;2023-06-19T09:10:42;34.60;41.60
45283;DHT22;31023;44.994;1.796;2023-06-19T09:13:07;35.00;43.60
45283;DHT22;31023;44.994;1.796;2023-06-19T09:15:35;33.30;41.60
45283;DHT22;31023;44.994;1.796;2023-06-19T09:20:28;30.70;50.60
45283;DHT22;31023;44.994;1.796;2023-06-19T09:22:57;30.30;51.80
45283;DHT22;31023;44.994;1.796;2023-06-19T09:25:22;29.00;53.50
45283;DHT22;31023;44.994;1.796;2023-06-19T09:27:49;28.30;54.20
45283;DHT22;31023;44.994;1.796;2023-06-19T09:30:15;27.90;56.70
45283;DHT22;31023;44.994;1.796;2023-06-19T09:32:41;27.80;56.60
45283;DHT22;31023;44.994;1.796;2023-06-19T09:35:06;26.80;59.50
45283;DHT22;31023;44.994;1.796;2023-06-19T09:37:32;27.00;59.50
45283;DHT22;31023;44.994;1.796;2023-06-19T09:39:58;26.90;59.50
45283;DHT22;31023;44.994;1.796;2023-06-19T09:44:55;26.90;60.80
45283;DHT22;31023;44.994;1.796;2023-06-19T09:47:23;27.00;60.30
45283;DHT22;31023;44.994;1.796;2023-06-19T09:49:54;27.40;59.50
45283;DHT22;31023;44.994;1.796;2023-06-19T09:52:20;27.20;60.10
45283;DHT22;31023;44.994;1.796;2023-06-19T09:54:49;27.10;61.00
45283;DHT22;31023;44.994;1.796;2023-06-19T09:57:15;27.10;61.80
45283;DHT22;31023;44.994;1.796;2023-06-19T09:59:40;27.00;61.00
45283;DHT22;31023;44.994;1.796;2023-06-19T10:02:07;26.50;61.90
45283;DHT22;31023;44.994;1.796;2023-06-19T10:04:43;26.10;64.10
45283;DHT22;31023;44.994;1.796;2023-06-19T10:07:17;25.20;82.40
45283;DHT22;31023;44.994;1.796;2023-06-19T10:12:33;26.10;72.20
45283;DHT22;31023;44.994;1.796;2023-06-19T10:15:02;26.80;69.60
45283;DHT22;31023;44.994;1.796;2023-06-19T10:17:33;27.20;67.80
45283;DHT22;31023;44.994;1.796;2023-06-19T10:19:58;26.70;67.00
45283;DHT22;31023;44.994;1.796;2023-06-19T10:22:24;26.40;68.90
45283;DHT22;31023;44.994;1.796;2023-06-19T10:24:55;26.10;69.00
45283;DHT22;31023;44.994;1.796;2023-06-19T10:27:21;26.30;69.10
45283;DHT22;31023;44.994;1.796;2023-06-19T10:29:51;26.40;69.70
45283;DHT22;31023;44.994;1.796;2023-06-19T10:32:17;27.00;68.40
45283;DHT22;31023;44.994;1.796;2023-06-19T10:34:45;28.10;66.10
45283;DHT22;31023;44.994;1.796;2023-06-19T10:37:12;28.60;65.20
45283;DHT22;31023;44.994;1.796;2023-06-19T10:39:38;29.60;63.70
45283;DHT22;31023;44.994;1.796;2023-06-19T10:42:07;30.50;61.30
45283;DHT22;31023;44.994;1.796;2023-06-19T10:44:33;31.00;62.10
45283;DHT22;31023;44.994;1.796;2023-06-19T10:46:59;32.00;57.70
45283;DHT22;31023;44.994;1.796;2023-06-19T10:49:25;31.20;58.20
45283;DHT22;31023;44.994;1.796;2023-06-19T10:51:50;29.10;58.40
45283;DHT22;31023;44.994;1.796;2023-06-19T10:54:18;28.90;60.60
45283;DHT22;31023;44.994;1.796;2023-06-19T10:56:44;28.40;60.80
45283;DHT22;31023;44.994;1.796;2023-06-19T10:59:13;27.20;63.80
45283;DHT22;31023;44.994;1.796;2023-06-19T11:01:43;28.20;62.60
45283;DHT22;31023;44.994;1.796;2023-06-19T11:04:10;28.50;62.80
45283;DHT22;31023;44.994;1.796;2023-06-19T11:06:36;28.20;61.80
45283;DHT22;31023;44.994;1.796;2023-06-19T11:09:08;28.40;61.50
45283;DHT22;31023;44.994;1.796;2023-06-19T11:11:37;29.20;59.10
45283;DHT22;31023;44.994;1.796;2023-06-19T11:14:03;29.10;61.10
45283;DHT22;31023;44.994;1.796;2023-06-19T11:16:29;29.50;60.40
45283;DHT22;31023;44.994;1.796;2023-06-19T11:18:57;28.80;59.10
45283;DHT22;31023;44.994;1.796;2023-06-19T11:21:30;29.50;58.40
45283;DHT22;31023;44.994;1.796;2023-06-19T11:23:57;29.20;60.10
45283;DHT22;31023;44.994;1.796;2023-06-19T11:26:24;29.10;59.80
45283;DHT22;31023;44.994;1.796;2023-06-19T11:28:50;28.70;60.50
45283;DHT22;31023;44.994;1.796;2023-06-19T11:31:15;28.50;59.70
45283;DHT22;31023;44.994;1.796;2023-06-19T11:33:41;29.30;60.60
45283;DHT22;31023;44.994;1.796;2023-06-19T11:36:06;28.70;59.00
45283;DHT22;31023;44.994;1.796;2023-06-19T11:38:33;28.20;62.40
45283;DHT22;31023;44.994;1.796;2023-06-19T11:41:01;28.10;62.00
45283;DHT22;31023;44.994;1.796;2023-06-19T11:43:30;27.60;63.00
45283;DHT22;31023;44.994;1.796;2023-06-19T11:46:03;27.40;63.00
45283;DHT22;31023;44.994;1.796;2023-06-19T11:48:29;27.90;63.30
45283;DHT22;31023;44.994;1.796;2023-06-19T11:50:55;27.70;62.20
45283;DHT22;31023;44.994;1.796;2023-06-19T11:53:21;27.60;62.40
45283;DHT22;31023;44.994;1.796;2023-06-19T11:55:46;28.00;62.30
45283;DHT22;31023;44.994;1.796;2023-06-19T11:58:12;27.50;62.50
45283;DHT22;31023;44.994;1.796;2023-06-19T12:00:38;28.00;63.10
45283;DHT22;31023;44.994;1.796;2023-06-19T12:03:03;28.60;61.50
45283;DHT22;31023;44.994;1.796;2023-06-19T12:05:29;28.10;63.00
45283;DHT22;31023;44.994;1.796;2023-06-19T12:07:55;27.90;61.80
45283;DHT22;31023;44.994;1.796;2023-06-19T12:10:20;27.90;63.10
45283;DHT22;31023;44.994;1.796;2023-06-19T12:12:46;27.60;63.80
45283;DHT22;31023;44.994;1.796;2023-06-19T12:15:11;27.50;62.90
45283;DHT22;31023;44.994;1.796;2023-06-19T12:17:37;27.30;65.50
45283;DHT22;31023;44.994;1.796;2023-06-19T12:20:03;27.50;66.00
45283;DHT22;31023;44.994;1.796;2023-06-19T12:22:32;27.70;63.60
45283;DHT22;31023;44.994;1.796;2023-06-19T12:24:58;28.40;62.00
45283;DHT22;31023;44.994;1.796;2023-06-19T12:27:24;28.20;62.70
45283;DHT22;31023;44.994;1.796;2023-06-19T12:29:50;28.10;62.40
45283;DHT22;31023;44.994;1.796;2023-06-19T12:32:15;28.70;60.10
45283;DHT22;31023;44.994;1.796;2023-06-19T12:34:41;28.60;59.90
45283;DHT22;31023;44.994;1.796;2023-06-19T12:37:13;28.70;61.50
45283;DHT22;31023;44.994;1.796;2023-06-19T12:39:39;28.10;60.50
45283;DHT22;31023;44.994;1.796;2023-06-19T12:42:05;28.50;59.40
45283;DHT22;31023;44.994;1.796;2023-06-19T12:44:31;29.00;58.40
45283;DHT22;31023;44.994;1.796;2023-06-19T12:46:56;29.50;57.30
45283;DHT22;31023;44.994;1.796;2023-06-19T12:49:23;29.40;57.60
45283;DHT22;31023;44.994;1.796;2023-06-19T12:51:49;29.60;58.10
45283;DHT22;31023;44.994;1.796;2023-06-19T12:54:17;29.60;55.90
45283;DHT22;31023;44.994;1.796;2023-06-19T12:56:43;30.00;57.10
45283;DHT22;31023;44.994;1.796;2023-06-19T12:59:09;29.80;56.90
45283;DHT22;31023;44.994;1.796;2023-06-19T13:01:34;29.40;58.10
45283;DHT22;31023;44.994;1.796;2023-06-19T13:04:00;29.20;57.50
45283;DHT22;31023;44.994;1.796;2023-06-19T13:06:25;29.10;57.30
45283;DHT22;31023;44.994;1.796;2023-06-19T13:08:51;28.90;58.40
45283;DHT22;31023;44.994;1.796;2023-06-19T13:11:16;29.00;58.90
45283;DHT22;31023;44.994;1.796;2023-06-19T13:13:42;29.40;58.70
45283;DHT22;31023;44.994;1.796;2023-06-19T13:16:08;29.30;57.50
45283;DHT22;31023;44.994;1.796;2023-06-19T13:18:35;29.40;58.40
45283;DHT22;31023;44.994;1.796;2023-06-19T13:21:00;29.60;58.10
45283;DHT22;31023;44.994;1.796;2023-06-19T13:23:26;30.10;57.50
45283;DHT22;31023;44.994;1.796;2023-06-19T13:25:51;30.30;57.70
45283;DHT22;31023;44.994;1.796;2023-06-19T13:28:17;29.90;57.70
45283;DHT22;31023;44.994;1.796;2023-06-19T13:30:43;29.40;56.60
45283;DHT22;31023;44.994;1.796;2023-06-19T13:33:08;29.50;57.00
45283;DHT22;31023;44.994;1.796;2023-06-19T13:35:34;29.50;59.20
45283;DHT22;31023;44.994;1.796;2023-06-19T13:38:00;29.80;59.40
45283;DHT22;31023;44.994;1.796;2023-06-19T13:40:26;28.80;58.20
45283;DHT22;31023;44.994;1.796;2023-06-19T13:42:51;28.30;59.10
45283;DHT22;31023;44.994;1.796;2023-06-19T13:45:17;28.50;59.70
45283;DHT22;31023;44.994;1.796;2023-06-19T13:47:43;28.10;59.20
45283;DHT22;31023;44.994;1.796;2023-06-19T13:50:08;28.10;60.00
45283;DHT22;31023;44.994;1.796;2023-06-19T13:52:34;28.00;60.60
45283;DHT22;31023;44.994;1.796;2023-06-19T13:55:00;27.90;60.60
45283;DHT22;31023;44.994;1.796;2023-06-19T13:57:27;27.90;60.70
45283;DHT22;31023;44.994;1.796;2023-06-19T13:59:53;28.20;60.90
45283;DHT22;31023;44.994;1.796;2023-06-19T14:02:18;27.70;61.10
45283;DHT22;31023;44.994;1.796;2023-06-19T14:04:44;27.90;62.10
45283;DHT22;31023;44.994;1.796;2023-06-19T14:07:09;28.10;63.10
45283;DHT22;31023;44.994;1.796;2023-06-19T14:09:35;27.90;61.80
45283;DHT22;31023;44.994;1.796;2023-06-19T14:12:01;27.90;62.10
45283;DHT22;31023;44.994;1.796;2023-06-19T14:14:26;28.00;62.30
45283;DHT22;31023;44.994;1.796;2023-06-19T14:16:52;27.90;61.00
45283;DHT22;31023;44.994;1.796;2023-06-19T14:19:17;27.80;61.60
45283;DHT22;31023;44.994;1.796;2023-06-19T14:21:43;27.40;63.30
45283;DHT22;31023;44.994;1.796;2023-06-19T14:24:08;27.40;61.50
45283;DHT22;31023;44.994;1.796;2023-06-19T14:26:34;27.20;62.10
45283;DHT22;31023;44.994;1.796;2023-06-19T14:28:59;27.40;62.10
45283;DHT22;31023;44.994;1.796;2023-06-19T14:31:25;27.30;62.00
45283;DHT22;31023;44.994;1.796;2023-06-19T14:33:51;27.30;62.00
45283;DHT22;31023;44.994;1.796;2023-06-19T14:36:16;27.60;62.20
45283;DHT22;31023;44.994;1.796;2023-06-19T14:38:42;27.40;63.00
45283;DHT22;31023;44.994;1.796;2023-06-19T14:41:07;27.40;62.40
45283;DHT22;31023;44.994;1.796;2023-06-19T14:43:33;27.40;63.20
45283;DHT22;31023;44.994;1.796;2023-06-19T14:46:00;27.50;63.00
45283;DHT22;31023;44.994;1.796;2023-06-19T14:48:26;27.60;62.50
45283;DHT22;31023;44.994;1.796;2023-06-19T14:50:52;27.40;63.30
45283;DHT22;31023;44.994;1.796;2023-06-19T14:53:17;27.70;62.90
45283;DHT22;31023;44.994;1.796;2023-06-19T14:55:43;27.80;62.90
45283;DHT22;31023;44.994;1.796;2023-06-19T14:58:12;28.20;62.60
45283;DHT22;31023;44.994;1.796;2023-06-19T15:00:37;28.40;62.30
45283;DHT22;31023;44.994;1.796;2023-06-19T15:03:06;28.30;63.00
45283;DHT22;31023;44.994;1.796;2023-06-19T15:05:32;28.00;63.30
45283;DHT22;31023;44.994;1.796;2023-06-19T15:07:58;28.00;62.10
45283;DHT22;31023;44.994;1.796;2023-06-19T15:10:25;28.00;62.00
45283;DHT22;31023;44.994;1.796;2023-06-19T15:12:50;27.70;63.30
45283;DHT22;31023;44.994;1.796;2023-06-19T15:15:16;27.60;61.90
45283;DHT22;31023;44.994;1.796;2023-06-19T15:17:42;27.50;62.40
45283;DHT22;31023;44.994;1.796;2023-06-19T15:20:07;27.10;61.60
45283;DHT22;31023;44.994;1.796;2023-06-19T15:22:34;26.80;59.60
45283;DHT22;31023;44.994;1.796;2023-06-19T15:25:02;26.70;59.80
45283;DHT22;31023;44.994;1.796;2023-06-19T15:27:27;26.60;59.40
45283;DHT22;31023;44.994;1.796;2023-06-19T15:29:53;26.80;59.50
45283;DHT22;31023;44.994;1.796;2023-06-19T15:32:19;26.80;58.80
45283;DHT22;31023;44.994;1.796;2023-06-19T15:34:44;27.10;59.40
45283;DHT22;31023;44.994;1.796;2023-06-19T15:37:10;27.50;57.40
45283;DHT22;31023;44.994;1.796;2023-06-19T15:39:36;27.60;57.50